Time,TemperatureF,DewpointF,PressureIn,WindDirection,WindDirectionDegrees,WindSpeedMPH,WindSpeedGustMPH,Humidity,HourlyPrecipIn,Conditions,Clouds,dailyrainin,SoftwareType,DateUTC
2013-06-25 00:00:00,71.0,65.9,30.02,SSE,154,0.0,0.0,84,0.00,,,0.00,VWS V14.01,2013-06-25 04:00:00,
2013-06-25 00:01:00,71.0,66.3,30.02,SSE,154,0.0,0.0,85,0.00,,,0.00,VWS V14.01,2013-06-25 04:01:00,
2013-06-25 00:06:00,70.7,66.0,30.02,SSE,154,0.0,0.0,85,0.00,,,0.00,VWS V14.01,2013-06-25 04:06:00,
2013-06-25 00:11:00,70.5,65.8,30.02,SSE,154,0.0,0.0,85,0.00,,,0.00,VWS V14.01,2013-06-25 04:11:00,
2013-06-25 00:16:00,70.3,65.9,30.02,SSE,154,0.0,0.0,86,0.00,,,0.00,VWS V14.01,2013-06-25 04:16:00,
2013-06-25 00:21:00,70.1,65.7,30.03,SSE,154,0.0,0.0,86,0.00,,,0.00,VWS V14.01,2013-06-25 04:21:00,
2013-06-25 00:26:00,70.0,66.0,30.02,SSE,154,0.0,0.0,87,0.00,,,0.00,VWS V14.01,2013-06-25 04:26:00,
2013-06-25 00:31:00,70.0,66.3,30.02,SSE,154,0.0,0.0,88,0.00,,,0.00,VWS V14.01,2013-06-25 04:31:00,
2013-06-25 00:36:00,69.9,66.2,30.02,SSE,154,0.0,0.0,88,0.00,,,0.00,VWS V14.01,2013-06-25 04:36:00,
2013-06-25 00:41:00,69.7,66.3,30.02,SSE,155,0.0,0.0,89,0.00,,,0.00,VWS V14.01,2013-06-25 04:41:00,
2013-06-25 00:46:00,69.6,66.2,30.02,SSE,154,0.0,0.0,89,0.00,,,0.00,VWS V14.01,2013-06-25 04:46:00,
2013-06-25 00:51:00,69.4,66.0,30.02,SSE,154,0.0,0.0,89,0.00,,,0.00,VWS V14.01,2013-06-25 04:51:00,
2013-06-25 00:56:00,69.3,65.9,30.02,SSE,154,0.0,0.0,89,0.00,,,0.00,VWS V14.01,2013-06-25 04:56:00,
2013-06-25 01:01:00,69.1,66.1,30.02,SSE,154,0.0,0.0,90,0.00,,CLR,0.00,VWS V14.01,2013-06-25 05:01:00,
2013-06-25 01:06:00,68.9,65.8,30.01,SSE,154,0.0,0.0,90,0.00,,CLR,0.00,VWS V14.01,2013-06-25 05:06:00,
2013-06-25 01:12:00,68.8,65.8,30.02,SSE,154,0.0,0.0,90,0.00,,CLR,0.00,VWS V14.01,2013-06-25 05:12:00,
2013-06-25 01:17:00,68.6,65.6,30.01,SSE,154,0.0,0.0,90,0.00,,,0.00,VWS V14.01,2013-06-25 05:17:00,
2013-06-25 01:22:00,68.5,65.8,30.01,SSE,154,0.0,0.0,91,0.00,,,0.00,VWS V14.01,2013-06-25 05:22:00,
2013-06-25 01:27:00,68.4,65.7,30.01,SSE,154,0.0,0.0,91,0.00,,,0.00,VWS V14.01,2013-06-25 05:27:00,
2013-06-25 01:32:00,68.3,65.6,30.01,SSE,154,0.0,0.0,91,0.00,,,0.00,VWS V14.01,2013-06-25 05:32:00,
2013-06-25 01:37:00,68.1,65.4,30.00,SSE,154,0.0,0.0,91,0.00,,,0.00,VWS V14.01,2013-06-25 05:37:00,
2013-06-25 01:42:00,67.9,65.5,30.00,SSE,154,0.0,0.0,92,0.00,,,0.00,VWS V14.01,2013-06-25 05:42:00,
2013-06-25 01:47:00,67.6,65.2,30.00,SSE,154,0.0,0.0,92,0.00,,,0.00,VWS V14.01,2013-06-25 05:47:00,
2013-06-25 01:52:00,67.4,65.0,30.00,SSE,154,0.0,0.0,92,0.00,,,0.00,VWS V14.01,2013-06-25 05:52:00,
2013-06-25 01:57:00,67.2,64.8,30.00,SSE,154,0.0,0.0,92,0.00,,,0.00,VWS V14.01,2013-06-25 05:57:00,
2013-06-25 02:02:00,67.1,65.0,30.00,SSE,154,0.0,0.0,93,0.00,,,0.00,VWS V14.01,2013-06-25 06:02:00,
2013-06-25 02:07:00,67.1,64.7,30.00,SSE,154,0.0,0.0,92,0.00,,,0.00,VWS V14.01,2013-06-25 06:07:00,
2013-06-25 02:12:00,67.0,64.9,29.99,SSE,154,0.0,0.0,93,0.00,,,0.00,VWS V14.01,2013-06-25 06:12:00,
2013-06-25 02:17:00,66.9,64.8,29.99,SSE,154,0.0,0.0,93,0.00,,,0.00,VWS V14.01,2013-06-25 06:17:00,
2013-06-25 02:22:00,66.9,64.8,29.99,SSE,154,0.0,0.0,93,0.00,,,0.00,VWS V14.01,2013-06-25 06:22:00,
2013-06-25 02:27:00,66.8,65.0,29.99,SSE,154,0.0,0.0,94,0.00,,,0.00,VWS V14.01,2013-06-25 06:27:00,
2013-06-25 02:32:00,66.8,65.0,29.99,SSE,154,0.0,0.0,94,0.00,,,0.00,VWS V14.01,2013-06-25 06:32:00,
2013-06-25 02:37:00,66.9,65.1,29.99,SE,146,0.0,0.0,94,0.00,,,0.00,VWS V14.01,2013-06-25 06:37:00,
2013-06-25 02:42:00,66.9,65.1,29.99,SSE,148,0.0,0.0,94,0.00,,,0.00,VWS V14.01,2013-06-25 06:42:00,
2013-06-25 02:47:00,67.1,65.3,29.99,SSE,148,0.0,0.0,94,0.00,,,0.00,VWS V14.01,2013-06-25 06:47:00,
2013-06-25 02:52:00,67.2,65.4,29.99,SE,143,0.0,0.0,94,0.00,,,0.00,VWS V14.01,2013-06-25 06:52:00,
2013-06-25 02:57:00,67.2,65.4,29.99,SE,143,0.0,0.0,94,0.00,,,0.00,VWS V14.01,2013-06-25 06:57:00,
2013-06-25 03:03:00,67.2,65.4,29.99,SE,143,0.0,0.0,94,0.00,,,0.00,VWS V14.01,2013-06-25 07:03:00,
2013-06-25 03:08:00,67.1,65.3,29.99,SE,144,0.0,0.0,94,0.00,,,0.00,VWS V14.01,2013-06-25 07:08:00,
2013-06-25 03:13:00,67.2,65.4,29.99,SE,140,0.0,0.0,94,0.00,,,0.00,VWS V14.01,2013-06-25 07:13:00,
2013-06-25 03:18:00,67.2,65.4,29.99,SE,140,0.0,0.0,94,0.00,,,0.00,VWS V14.01,2013-06-25 07:18:00,
2013-06-25 03:23:00,67.2,65.4,29.99,SE,140,0.0,0.0,94,0.00,,,0.00,VWS V14.01,2013-06-25 07:23:00,
2013-06-25 03:28:00,67.2,65.4,29.99,SE,143,0.0,0.0,94,0.00,,,0.00,VWS V14.01,2013-06-25 07:28:00,
2013-06-25 03:33:00,67.3,65.5,29.99,SE,143,0.0,0.0,94,0.00,,,0.00,VWS V14.01,2013-06-25 07:33:00,
2013-06-25 03:38:00,67.2,65.4,29.99,SE,143,0.0,0.0,94,0.00,,,0.00,VWS V14.01,2013-06-25 07:38:00,
2013-06-25 03:43:00,67.1,65.3,29.99,SE,143,0.0,0.0,94,0.00,,,0.00,VWS V14.01,2013-06-25 07:43:00,
2013-06-25 03:48:00,67.1,65.3,29.99,SE,143,0.0,0.0,94,0.00,,,0.00,VWS V14.01,2013-06-25 07:48:00,
2013-06-25 03:53:00,67.1,65.3,29.99,SE,143,0.0,0.0,94,0.00,,,0.00,VWS V14.01,2013-06-25 07:53:00,
2013-06-25 03:58:00,67.1,65.3,29.99,SE,143,0.0,0.0,94,0.00,,,0.00,VWS V14.01,2013-06-25 07:58:00,
2013-06-25 04:03:00,67.3,65.5,29.99,SE,143,0.0,0.0,94,0.00,,,0.00,VWS V14.01,2013-06-25 08:03:00,
2013-06-25 04:08:00,67.3,65.5,29.99,SE,143,0.0,0.0,94,0.00,,,0.00,VWS V14.01,2013-06-25 08:08:00,
2013-06-25 04:13:00,67.3,65.2,29.98,SE,143,0.0,0.0,93,0.00,,,0.00,VWS V14.01,2013-06-25 08:13:00,
2013-06-25 04:18:00,67.2,65.1,29.99,SE,143,0.0,0.0,93,0.00,,,0.00,VWS V14.01,2013-06-25 08:18:00,
2013-06-25 04:23:00,67.2,65.1,29.98,SE,143,0.0,0.0,93,0.00,,,0.00,VWS V14.01,2013-06-25 08:23:00,
2013-06-25 04:28:00,67.1,65.0,29.98,SE,143,0.0,0.0,93,0.00,,,0.00,VWS V14.01,2013-06-25 08:28:00,
2013-06-25 04:33:00,67.1,65.0,29.98,SE,143,0.0,0.0,93,0.00,,,0.00,VWS V14.01,2013-06-25 08:33:00,
2013-06-25 04:38:00,67.0,64.9,29.98,SE,143,0.0,0.0,93,0.00,,,0.00,VWS V14.01,2013-06-25 08:38:00,
2013-06-25 04:43:00,66.9,65.1,29.98,SE,143,0.0,0.0,94,0.00,,,0.00,VWS V14.01,2013-06-25 08:43:00,
2013-06-25 04:48:00,66.9,65.1,29.98,SE,143,0.0,0.0,94,0.00,,,0.00,VWS V14.01,2013-06-25 08:48:00,
2013-06-25 04:53:00,66.8,65.0,29.98,SE,143,0.0,0.0,94,0.00,,,0.00,VWS V14.01,2013-06-25 08:53:00,
2013-06-25 04:58:00,66.8,65.0,29.97,SE,143,0.0,0.0,94,0.00,,,0.00,VWS V14.01,2013-06-25 08:58:00,
2013-06-25 05:04:00,66.7,64.9,29.97,SE,143,0.0,0.0,94,0.00,,,0.00,VWS V14.01,2013-06-25 09:04:00,
2013-06-25 05:09:00,66.6,65.1,29.98,SE,143,0.0,0.0,95,0.00,,,0.00,VWS V14.01,2013-06-25 09:09:00,
2013-06-25 05:14:00,66.6,65.1,29.98,SE,143,0.0,0.0,95,0.00,,,0.00,VWS V14.01,2013-06-25 09:14:00,
2013-06-25 05:19:00,66.5,65.0,29.98,SE,143,0.0,0.0,95,0.00,,,0.00,VWS V14.01,2013-06-25 09:19:00,
2013-06-25 05:24:00,66.4,64.9,29.99,ESE,111,0.0,0.0,95,0.00,,,0.00,VWS V14.01,2013-06-25 09:24:00,
2013-06-25 05:29:00,66.5,65.0,29.99,SE,137,0.0,0.0,95,0.00,,,0.00,VWS V14.01,2013-06-25 09:29:00,
2013-06-25 05:34:00,66.6,65.1,29.99,SSE,155,0.0,0.0,95,0.00,,,0.00,VWS V14.01,2013-06-25 09:34:00,
2013-06-25 05:39:00,66.7,65.2,29.99,SSE,153,0.0,0.0,95,0.00,,,0.00,VWS V14.01,2013-06-25 09:39:00,
2013-06-25 05:44:00,66.8,65.3,29.99,SSE,153,0.0,0.0,95,0.00,,,0.00,VWS V14.01,2013-06-25 09:44:00,
2013-06-25 05:49:00,66.9,65.4,29.99,SE,134,0.0,0.0,95,0.00,,,0.00,VWS V14.01,2013-06-25 09:49:00,
2013-06-25 05:54:00,67.0,65.5,29.99,SE,134,0.0,0.0,95,0.00,,,0.00,VWS V14.01,2013-06-25 09:54:00,
2013-06-25 05:59:00,67.0,65.2,29.99,SE,134,0.0,0.0,94,0.00,,,0.00,VWS V14.01,2013-06-25 09:59:00,
2013-06-25 06:04:00,67.1,65.3,29.99,SE,134,0.0,0.0,94,0.00,,,0.00,VWS V14.01,2013-06-25 10:04:00,
2013-06-25 06:09:00,67.1,65.3,29.99,SE,134,0.0,0.0,94,0.00,,,0.00,VWS V14.01,2013-06-25 10:09:00,
2013-06-25 06:14:00,67.2,65.4,29.99,SE,134,0.0,0.0,94,0.00,,,0.00,VWS V14.01,2013-06-25 10:14:00,
2013-06-25 06:19:00,67.3,65.8,29.99,SE,134,0.0,0.0,95,0.00,,,0.00,VWS V14.01,2013-06-25 10:19:00,
2013-06-25 06:20:00,67.4,65.9,29.99,SE,134,0.0,0.0,95,0.00,,,0.00,VWS V14.01,2013-06-25 10:20:00,
2013-06-25 06:25:00,67.5,66.0,29.99,SE,134,0.0,0.0,95,0.00,,,0.00,VWS V14.01,2013-06-25 10:25:00,
2013-06-25 06:30:00,67.6,66.1,29.99,SE,134,0.0,0.0,95,0.00,,,0.00,VWS V14.01,2013-06-25 10:30:00,
2013-06-25 06:35:00,67.8,66.3,29.99,SE,134,0.0,0.0,95,0.00,,,0.00,VWS V14.01,2013-06-25 10:35:00,
2013-06-25 06:40:00,67.9,66.1,29.99,SE,134,0.0,0.0,94,0.00,,,0.00,VWS V14.01,2013-06-25 10:40:00,
2013-06-25 06:45:00,68.1,66.6,29.99,SE,134,0.0,0.0,95,0.00,,,0.00,VWS V14.01,2013-06-25 10:45:00,
2013-06-25 06:50:00,68.3,66.5,29.99,SSE,154,0.0,0.0,94,0.00,,,0.00,VWS V14.01,2013-06-25 10:50:00,
2013-06-25 06:55:00,68.6,66.8,29.99,SSE,154,0.0,0.0,94,0.00,,,0.00,VWS V14.01,2013-06-25 10:55:00,
2013-06-25 07:00:00,68.9,67.1,29.99,SSE,154,0.0,0.0,94,0.00,,,0.00,VWS V14.01,2013-06-25 11:00:00,
2013-06-25 07:05:00,69.3,66.9,29.99,SSE,154,0.0,0.0,92,0.00,,,0.00,VWS V14.01,2013-06-25 11:05:00,
2013-06-25 07:10:00,69.7,67.3,29.99,SSE,154,0.0,0.0,92,0.00,,,0.00,VWS V14.01,2013-06-25 11:10:00,
2013-06-25 07:15:00,70.1,67.4,29.99,SSE,154,0.0,0.0,91,0.00,,,0.00,VWS V14.01,2013-06-25 11:15:00,
2013-06-25 07:20:00,70.5,67.4,29.99,SSE,153,0.0,0.0,90,0.00,,,0.00,VWS V14.01,2013-06-25 11:20:00,
2013-06-25 07:25:00,70.9,67.5,29.99,SSE,153,0.0,0.0,89,0.00,,,0.00,VWS V14.01,2013-06-25 11:25:00,
2013-06-25 07:30:00,71.3,67.2,29.99,South,184,0.0,0.0,87,0.00,,,0.00,VWS V14.01,2013-06-25 11:30:00,
2013-06-25 07:35:00,71.8,67.4,29.99,SE,146,0.0,0.0,86,0.00,,,0.00,VWS V14.01,2013-06-25 11:35:00,
2013-06-25 07:40:00,72.2,67.8,29.99,SSW,207,0.0,1.0,86,0.00,,,0.00,VWS V14.01,2013-06-25 11:40:00,
2013-06-25 07:45:00,72.5,67.7,29.99,SSE,155,0.0,1.0,85,0.00,,,0.00,VWS V14.01,2013-06-25 11:45:00,
2013-06-25 07:50:00,72.8,67.7,29.99,SSE,161,0.0,1.0,84,0.00,,,0.00,VWS V14.01,2013-06-25 11:50:00,
2013-06-25 07:55:00,73.1,68.0,29.99,SE,142,0.0,1.0,84,0.00,,,0.00,VWS V14.01,2013-06-25 11:55:00,
2013-06-25 08:00:00,73.4,67.9,29.99,South,169,0.0,0.0,83,0.00,,CLR,0.00,VWS V14.01,2013-06-25 12:00:00,
2013-06-25 08:05:00,73.8,68.3,29.99,SSW,210,0.0,0.0,83,0.00,,CLR,0.00,VWS V14.01,2013-06-25 12:05:00,
2013-06-25 08:10:00,74.1,68.6,29.99,SSW,210,0.0,0.0,83,0.00,,CLR,0.00,VWS V14.01,2013-06-25 12:10:00,
2013-06-25 08:15:00,74.5,69.0,29.99,NNW,329,0.0,0.0,83,0.00,,CLR,0.00,VWS V14.01,2013-06-25 12:15:00,
2013-06-25 08:20:00,74.8,68.9,29.99,ESE,103,0.0,0.0,82,0.00,,CLR,0.00,VWS V14.01,2013-06-25 12:20:00,
2013-06-25 08:25:00,75.2,69.3,29.99,SSE,163,0.0,0.0,82,0.00,,CLR,0.00,VWS V14.01,2013-06-25 12:25:00,
2013-06-25 08:30:00,75.5,69.3,29.98,SSE,157,0.0,0.0,81,0.00,,CLR,0.00,VWS V14.01,2013-06-25 12:30:00,
2013-06-25 08:35:00,75.8,69.2,29.98,South,181,0.0,0.0,80,0.00,,CLR,0.00,VWS V14.01,2013-06-25 12:35:00,
2013-06-25 08:40:00,76.3,70.1,29.98,SSW,200,0.0,0.0,81,0.00,,CLR,0.00,VWS V14.01,2013-06-25 12:40:00,
2013-06-25 08:45:00,76.8,69.8,29.98,NW,322,0.0,0.0,79,0.00,,CLR,0.00,VWS V14.01,2013-06-25 12:45:00,
2013-06-25 08:50:00,77.3,69.9,29.98,WSW,257,0.0,0.0,78,0.00,,CLR,0.00,VWS V14.01,2013-06-25 12:50:00,
2013-06-25 08:56:00,77.9,70.5,29.99,SW,227,0.0,0.0,78,0.00,,CLR,0.00,VWS V14.01,2013-06-25 12:56:00,
2013-06-25 09:01:00,78.3,70.1,29.98,South,172,0.0,0.0,76,0.00,,CLR,0.00,VWS V14.01,2013-06-25 13:01:00,
2013-06-25 09:06:00,78.7,70.5,29.98,SSW,207,0.0,0.0,76,0.00,,CLR,0.00,VWS V14.01,2013-06-25 13:06:00,
2013-06-25 09:11:00,79.3,70.3,29.99,WNW,298,0.0,0.0,74,0.00,,CLR,0.00,VWS V14.01,2013-06-25 13:11:00,
2013-06-25 09:16:00,80.0,71.0,29.98,SW,230,2.0,5.0,74,0.00,,CLR,0.00,VWS V14.01,2013-06-25 13:16:00,
2013-06-25 09:21:00,80.3,70.5,29.98,WNW,294,0.0,5.0,72,0.00,,CLR,0.00,VWS V14.01,2013-06-25 13:21:00,
2013-06-25 09:26:00,80.6,71.2,29.98,WNW,297,0.0,5.0,73,0.00,,CLR,0.00,VWS V14.01,2013-06-25 13:26:00,
2013-06-25 09:31:00,81.1,71.6,29.98,SSW,200,1.0,3.0,73,0.00,,CLR,0.00,VWS V14.01,2013-06-25 13:31:00,
2013-06-25 09:36:00,81.6,71.7,29.98,SSW,192,1.0,3.0,72,0.00,,CLR,0.00,VWS V14.01,2013-06-25 13:36:00,
2013-06-25 09:41:00,82.1,71.8,29.98,SSW,207,0.0,3.0,71,0.00,,CLR,0.00,VWS V14.01,2013-06-25 13:41:00,
2013-06-25 09:46:00,82.2,71.4,29.98,NW,313,1.0,6.0,70,0.00,,CLR,0.00,VWS V14.01,2013-06-25 13:46:00,
2013-06-25 09:51:00,82.8,71.6,29.98,WNW,288,0.0,6.0,69,0.00,,CLR,0.00,VWS V14.01,2013-06-25 13:51:00,
2013-06-25 09:56:00,83.3,71.6,29.98,NW,323,1.0,6.0,68,0.00,,CLR,0.00,VWS V14.01,2013-06-25 13:56:00,
2013-06-25 10:01:00,83.7,71.6,29.98,SW,219,1.0,2.0,67,0.00,,CLR,0.00,VWS V14.01,2013-06-25 14:01:00,
2013-06-25 10:06:00,83.9,71.8,29.97,South,190,1.0,3.0,67,0.00,,CLR,0.00,VWS V14.01,2013-06-25 14:06:00,
2013-06-25 10:11:00,84.1,72.0,29.97,NNW,339,1.0,3.0,67,0.00,,CLR,0.00,VWS V14.01,2013-06-25 14:11:00,
2013-06-25 10:16:00,84.4,72.2,29.98,NW,325,3.0,7.0,67,0.00,,CLR,0.00,VWS V14.01,2013-06-25 14:16:00,
2013-06-25 10:21:00,84.7,72.1,29.97,SSE,154,2.0,7.0,66,0.00,,CLR,0.00,VWS V14.01,2013-06-25 14:21:00,
2013-06-25 10:26:00,85.1,72.5,29.97,WNW,302,2.0,7.0,66,0.00,,CLR,0.00,VWS V14.01,2013-06-25 14:26:00,
2013-06-25 10:31:00,85.7,73.0,29.97,NNW,343,0.0,5.0,66,0.00,,CLR,0.00,VWS V14.01,2013-06-25 14:31:00,
2013-06-25 10:36:00,86.4,72.8,29.97,ENE,70,1.0,5.0,64,0.00,,CLR,0.00,VWS V14.01,2013-06-25 14:36:00,
2013-06-25 10:41:00,86.7,73.1,29.97,SW,234,1.0,5.0,64,0.00,,CLR,0.00,VWS V14.01,2013-06-25 14:41:00,
2013-06-25 10:46:00,86.9,73.7,29.97,WNW,298,6.0,6.0,65,0.00,,CLR,0.00,VWS V14.01,2013-06-25 14:46:00,
2013-06-25 10:51:00,87.5,73.8,29.97,SSE,155,2.0,6.0,64,0.00,,CLR,0.00,VWS V14.01,2013-06-25 14:51:00,
2013-06-25 10:56:00,87.5,73.8,29.97,NW,307,3.0,6.0,64,0.00,,CLR,0.00,VWS V14.01,2013-06-25 14:56:00,
2013-06-25 11:01:00,87.9,73.7,29.98,NW,323,0.0,7.0,63,0.00,,CLR,0.00,VWS V14.01,2013-06-25 15:01:00,
2013-06-25 11:06:00,88.1,73.4,29.98,SE,141,2.0,7.0,62,0.00,,CLR,0.00,VWS V14.01,2013-06-25 15:06:00,
2013-06-25 11:11:00,88.2,73.6,29.98,West,272,0.0,8.0,62,0.00,,CLR,0.00,VWS V14.01,2013-06-25 15:11:00,
2013-06-25 11:16:00,88.9,72.7,29.98,WSW,243,2.0,8.0,59,0.00,,CLR,0.00,VWS V14.01,2013-06-25 15:16:00,
2013-06-25 11:21:00,88.9,73.2,29.97,SW,236,0.0,8.0,60,0.00,,CLR,0.00,VWS V14.01,2013-06-25 15:21:00,
2013-06-25 11:26:00,88.6,72.4,29.97,WNW,301,0.0,8.0,59,0.00,,CLR,0.00,VWS V14.01,2013-06-25 15:26:00,
2013-06-25 11:31:00,89.0,73.8,29.97,SW,222,2.0,3.0,61,0.00,,CLR,0.00,VWS V14.01,2013-06-25 15:31:00,
2013-06-25 11:36:00,89.1,73.4,29.97,NW,314,1.0,3.0,60,0.00,,CLR,0.00,VWS V14.01,2013-06-25 15:36:00,
2013-06-25 11:41:00,89.3,72.6,29.97,West,274,2.0,5.0,58,0.00,,CLR,0.00,VWS V14.01,2013-06-25 15:41:00,
2013-06-25 11:47:00,89.6,72.4,29.97,WNW,293,0.0,5.0,57,0.00,,CLR,0.00,VWS V14.01,2013-06-25 15:47:00,
2013-06-25 11:52:00,90.1,72.3,29.97,NW,308,2.0,5.0,56,0.00,,CLR,0.00,VWS V14.01,2013-06-25 15:52:00,
2013-06-25 11:57:00,90.6,73.3,29.97,WNW,301,1.0,6.0,57,0.00,,CLR,0.00,VWS V14.01,2013-06-25 15:57:00,
2013-06-25 12:02:00,91.0,73.1,29.97,NW,321,1.0,3.0,56,0.00,,CLR,0.00,VWS V14.01,2013-06-25 16:02:00,
2013-06-25 12:07:00,91.5,72.5,29.97,West,265,2.0,6.0,54,0.00,,CLR,0.00,VWS V14.01,2013-06-25 16:07:00,
2013-06-25 12:12:00,91.3,73.4,29.97,WSW,244,0.0,6.0,56,0.00,,CLR,0.00,VWS V14.01,2013-06-25 16:12:00,
2013-06-25 12:17:00,91.8,72.8,29.96,South,184,4.0,7.0,54,0.00,,CLR,0.00,VWS V14.01,2013-06-25 16:17:00,
2013-06-25 12:22:00,92.0,72.4,29.96,NW,314,0.0,7.0,53,0.00,,CLR,0.00,VWS V14.01,2013-06-25 16:22:00,
2013-06-25 12:27:00,91.5,72.5,29.96,NNE,24,1.0,8.0,54,0.00,,CLR,0.00,VWS V14.01,2013-06-25 16:27:00,
2013-06-25 12:32:00,91.2,71.7,29.96,WNW,292,3.0,7.0,53,0.00,,CLR,0.00,VWS V14.01,2013-06-25 16:32:00,
2013-06-25 12:37:00,91.7,72.2,29.95,NNW,340,1.0,7.0,53,0.00,,CLR,0.00,VWS V14.01,2013-06-25 16:37:00,
2013-06-25 12:42:00,91.9,71.8,29.95,South,190,0.0,7.0,52,0.00,,CLR,0.00,VWS V14.01,2013-06-25 16:42:00,
2013-06-25 12:47:00,92.0,71.9,29.95,NW,315,3.0,7.0,52,0.00,,CLR,0.00,VWS V14.01,2013-06-25 16:47:00,
2013-06-25 12:52:00,92.4,72.2,29.94,WNW,292,0.0,8.0,52,0.00,,CLR,0.00,VWS V14.01,2013-06-25 16:52:00,
2013-06-25 12:57:00,93.1,72.9,29.94,West,279,6.0,8.0,52,0.00,,CLR,0.00,VWS V14.01,2013-06-25 16:57:00,
2013-06-25 13:02:00,93.4,72.0,29.94,SSW,209,2.0,5.0,50,0.00,,CLR,0.00,VWS V14.01,2013-06-25 17:02:00,
2013-06-25 13:07:00,93.0,72.8,29.94,NNE,19,0.0,5.0,52,0.00,,CLR,0.00,VWS V14.01,2013-06-25 17:07:00,
2013-06-25 13:12:00,93.0,72.2,29.94,West,274,1.0,6.0,51,0.00,,CLR,0.00,VWS V14.01,2013-06-25 17:12:00,
2013-06-25 13:17:00,92.9,72.7,29.93,NNW,342,0.0,7.0,52,0.00,,CLR,0.00,VWS V14.01,2013-06-25 17:17:00,
2013-06-25 13:22:00,92.9,70.9,29.93,SW,221,3.0,7.0,49,0.00,,CLR,0.00,VWS V14.01,2013-06-25 17:22:00,
2013-06-25 13:27:00,92.5,71.8,29.93,SSW,192,1.0,7.0,51,0.00,,CLR,0.00,VWS V14.01,2013-06-25 17:27:00,
2013-06-25 13:32:00,92.5,72.3,29.93,SSE,162,1.0,5.0,52,0.00,,CLR,0.00,VWS V14.01,2013-06-25 17:32:00,
2013-06-25 13:37:00,92.1,70.8,29.93,SW,218,6.0,7.0,50,0.00,,CLR,0.00,VWS V14.01,2013-06-25 17:37:00,
2013-06-25 13:42:00,91.4,70.7,29.93,SE,144,2.0,10.0,51,0.00,,CLR,0.00,VWS V14.01,2013-06-25 17:42:00,
2013-06-25 13:47:00,91.4,71.9,29.93,NNE,18,1.0,10.0,53,0.00,,CLR,0.00,VWS V14.01,2013-06-25 17:47:00,
2013-06-25 13:52:00,92.0,71.3,29.92,WSW,255,2.0,10.0,51,0.00,,CLR,0.00,VWS V14.01,2013-06-25 17:52:00,
2013-06-25 13:57:00,92.1,70.8,29.92,South,171,1.0,10.0,50,0.00,,CLR,0.00,VWS V14.01,2013-06-25 17:57:00,
2013-06-25 14:02:00,92.2,71.5,29.92,NW,322,1.0,7.0,51,0.00,,FEW055,0.00,VWS V14.01,2013-06-25 18:02:00,
2013-06-25 14:07:00,92.7,70.2,29.92,NW,325,2.0,8.0,48,0.00,,FEW055,0.00,VWS V14.01,2013-06-25 18:07:00,
2013-06-25 14:12:00,92.6,70.1,29.92,SSW,194,5.0,8.0,48,0.00,,FEW055,0.00,VWS V14.01,2013-06-25 18:12:00,
2013-06-25 14:17:00,92.4,71.1,29.92,NW,311,2.0,8.0,50,0.00,,FEW055,0.00,VWS V14.01,2013-06-25 18:17:00,
2013-06-25 14:22:00,92.5,70.6,29.92,SSE,163,6.0,8.0,49,0.00,,FEW055,0.00,VWS V14.01,2013-06-25 18:22:00,
2013-06-25 14:28:00,92.6,70.7,29.91,West,274,1.0,9.0,49,0.00,,FEW055,0.00,VWS V14.01,2013-06-25 18:28:00,
2013-06-25 14:32:00,92.8,70.2,29.91,SW,228,3.0,6.0,48,0.00,,FEW055,0.00,VWS V14.01,2013-06-25 18:32:00,
2013-06-25 14:38:00,92.6,70.7,29.91,WSW,251,2.0,10.0,49,0.00,,FEW055,0.00,VWS V14.01,2013-06-25 18:38:00,
2013-06-25 14:43:00,92.6,70.7,29.91,South,189,1.0,10.0,49,0.00,,FEW055,0.00,VWS V14.01,2013-06-25 18:43:00,
2013-06-25 14:48:00,92.6,70.7,29.91,WSW,238,5.0,10.0,49,0.00,,FEW055,0.00,VWS V14.01,2013-06-25 18:48:00,
2013-06-25 14:53:00,92.4,70.5,29.90,SW,217,2.0,10.0,49,0.00,,FEW055,0.00,VWS V14.01,2013-06-25 18:53:00,
2013-06-25 14:58:00,92.6,70.1,29.90,SSW,192,7.0,10.0,48,0.00,,FEW055,0.00,VWS V14.01,2013-06-25 18:58:00,
2013-06-25 15:03:00,92.9,69.7,29.90,SE,130,1.0,5.0,47,0.00,,SCT120,0.00,VWS V14.01,2013-06-25 19:03:00,
2013-06-25 15:08:00,93.5,70.3,29.90,NNW,327,1.0,5.0,47,0.00,,SCT120,0.00,VWS V14.01,2013-06-25 19:08:00,
2013-06-25 15:13:00,94.1,70.2,29.90,South,184,5.0,7.0,46,0.00,,SCT120,0.00,VWS V14.01,2013-06-25 19:13:00,
2013-06-25 15:18:00,94.0,69.4,29.89,SW,233,2.0,8.0,45,0.00,,SCT120,0.00,VWS V14.01,2013-06-25 19:18:00,
2013-06-25 15:23:00,94.0,69.4,29.89,WNW,295,1.0,8.0,45,0.00,,SCT120,0.00,VWS V14.01,2013-06-25 19:23:00,
2013-06-25 15:28:00,94.4,69.8,29.89,West,277,2.0,8.0,45,0.00,,SCT120,0.00,VWS V14.01,2013-06-25 19:28:00,
2013-06-25 15:33:00,94.0,68.8,29.89,SW,233,1.0,7.0,44,0.00,,SCT120,0.00,VWS V14.01,2013-06-25 19:33:00,
2013-06-25 15:38:00,93.5,69.0,29.89,NW,304,5.0,7.0,45,0.00,,SCT120,0.00,VWS V14.01,2013-06-25 19:38:00,
2013-06-25 15:43:00,93.3,69.4,29.89,WSW,252,0.0,7.0,46,0.00,,SCT120,0.00,VWS V14.01,2013-06-25 19:43:00,
2013-06-25 15:48:00,93.0,69.8,29.88,NW,305,1.0,7.0,47,0.00,,SCT120,0.00,VWS V14.01,2013-06-25 19:48:00,
2013-06-25 15:53:00,92.6,69.4,29.89,SSW,213,1.0,7.0,47,0.00,,SCT120,0.00,VWS V14.01,2013-06-25 19:53:00,
2013-06-25 15:58:00,92.3,69.8,29.89,SSW,193,0.0,7.0,48,0.00,,SCT120,0.00,VWS V14.01,2013-06-25 19:58:00,
2013-06-25 16:03:00,92.1,70.2,29.89,WNW,298,1.0,4.0,49,0.00,,-RA,0.00,VWS V14.01,2013-06-25 20:03:00,
2013-06-25 16:08:00,91.7,70.4,29.89,SSE,161,2.0,6.0,50,0.00,,-RA,0.00,VWS V14.01,2013-06-25 20:08:00,
2013-06-25 16:13:00,91.3,70.7,29.89,SSW,207,4.0,7.0,51,0.00,,-RA,0.00,VWS V14.01,2013-06-25 20:13:00,
2013-06-25 16:18:00,91.0,70.9,29.89,SSE,161,2.0,7.0,52,0.00,,-RA,0.00,VWS V14.01,2013-06-25 20:18:00,
2013-06-25 16:23:00,91.0,71.5,29.89,South,174,4.0,9.0,53,0.00,,-RA,0.00,VWS V14.01,2013-06-25 20:23:00,
2013-06-25 16:28:00,91.2,71.7,29.89,SW,227,1.0,9.0,53,0.00,,-RA,0.00,VWS V14.01,2013-06-25 20:28:00,
2013-06-25 16:33:00,91.0,72.1,29.90,NW,317,5.0,10.0,54,0.00,,-RA,0.00,VWS V14.01,2013-06-25 20:33:00,
2013-06-25 16:38:00,91.2,72.2,29.89,WSW,239,3.0,10.0,54,0.00,,-RA,0.00,VWS V14.01,2013-06-25 20:38:00,
2013-06-25 16:43:00,91.6,72.1,29.89,West,281,4.0,10.0,53,0.00,,-RA,0.00,VWS V14.01,2013-06-25 20:43:00,
2013-06-25 16:48:00,91.1,72.2,29.89,WSW,242,2.0,10.0,54,0.00,,-RA,0.00,VWS V14.01,2013-06-25 20:48:00,
2013-06-25 16:53:00,91.5,72.5,29.89,North,349,4.0,10.0,54,0.00,,-RA,0.00,VWS V14.01,2013-06-25 20:53:00,
2013-06-25 16:58:00,91.8,72.8,29.89,SSE,158,0.0,10.0,54,0.00,,-RA,0.00,VWS V14.01,2013-06-25 20:58:00,
2013-06-25 17:03:00,91.9,72.9,29.88,ENE,77,3.0,4.0,54,0.00,,CLR,0.00,VWS V14.01,2013-06-25 21:03:00,
2013-06-25 17:08:00,91.7,72.7,29.88,WNW,292,1.0,5.0,54,0.00,,CLR,0.00,VWS V14.01,2013-06-25 21:08:00,
2013-06-25 17:13:00,92.0,73.5,29.88,SW,225,1.0,5.0,55,0.00,,CLR,0.00,VWS V14.01,2013-06-25 21:13:00,
2013-06-25 17:18:00,91.7,72.2,29.88,SW,224,0.0,5.0,53,0.00,,CLR,0.00,VWS V14.01,2013-06-25 21:18:00,
2013-06-25 17:23:00,90.9,72.5,29.88,SW,217,4.0,5.0,55,0.00,,CLR,0.00,VWS V14.01,2013-06-25 21:23:00,
2013-06-25 17:28:00,90.3,73.0,29.87,SSW,203,3.0,9.0,57,0.00,,CLR,0.00,VWS V14.01,2013-06-25 21:28:00,
2013-06-25 17:33:00,89.6,73.4,29.87,West,279,0.0,5.0,59,0.00,,CLR,0.00,VWS V14.01,2013-06-25 21:33:00,
2013-06-25 17:38:00,89.8,73.1,29.86,NW,320,1.0,5.0,58,0.00,,CLR,0.00,VWS V14.01,2013-06-25 21:38:00,
2013-06-25 17:43:00,90.1,72.3,29.86,SW,236,3.0,7.0,56,0.00,,CLR,0.00,VWS V14.01,2013-06-25 21:43:00,
2013-06-25 17:48:00,89.9,71.6,29.85,ENE,57,1.0,11.0,55,0.00,,CLR,0.00,VWS V14.01,2013-06-25 21:48:00,
2013-06-25 17:53:00,89.7,69.2,29.85,WNW,296,4.0,11.0,51,0.00,,CLR,0.00,VWS V14.01,2013-06-25 21:53:00,
2013-06-25 17:58:00,89.9,68.8,29.85,East,98,5.0,11.0,50,0.00,,CLR,0.00,VWS V14.01,2013-06-25 21:58:00,
2013-06-25 18:03:00,89.7,68.6,29.85,WSW,254,2.0,10.0,50,0.00,,CLR,0.00,VWS V14.01,2013-06-25 22:03:00,
2013-06-25 18:08:00,89.6,69.1,29.85,WNW,302,9.0,10.0,51,0.00,,CLR,0.00,VWS V14.01,2013-06-25 22:08:00,
2013-06-25 18:13:00,89.7,69.2,29.85,SSW,212,2.0,10.0,51,0.00,,CLR,0.00,VWS V14.01,2013-06-25 22:13:00,
2013-06-25 18:18:00,89.8,69.3,29.85,WNW,287,0.0,10.0,51,0.00,,CLR,0.00,VWS V14.01,2013-06-25 22:18:00,
2013-06-25 18:23:00,90.1,70.1,29.85,South,186,0.0,10.0,52,0.00,,CLR,0.00,VWS V14.01,2013-06-25 22:23:00,
2013-06-25 18:28:00,90.0,69.5,29.85,SW,217,3.0,10.0,51,0.00,,CLR,0.00,VWS V14.01,2013-06-25 22:28:00,
2013-06-25 18:34:00,89.7,69.8,29.85,South,180,0.0,3.0,52,0.00,,CLR,0.00,VWS V14.01,2013-06-25 22:34:00,
2013-06-25 18:39:00,89.3,69.4,29.86,WSW,246,0.0,5.0,52,0.00,,CLR,0.00,VWS V14.01,2013-06-25 22:39:00,
2013-06-25 18:44:00,89.0,69.1,29.86,SSW,209,4.0,5.0,52,0.00,,CLR,0.00,VWS V14.01,2013-06-25 22:44:00,
2013-06-25 18:49:00,88.2,68.9,29.86,SSW,192,1.0,5.0,53,0.00,,CLR,0.00,VWS V14.01,2013-06-25 22:49:00,
2013-06-25 18:54:00,87.6,68.9,29.86,East,84,0.0,5.0,54,0.00,,CLR,0.00,VWS V14.01,2013-06-25 22:54:00,
2013-06-25 18:59:00,87.3,69.2,29.86,South,180,1.0,5.0,55,0.00,,CLR,0.00,VWS V14.01,2013-06-25 22:59:00,
2013-06-25 19:04:00,87.1,69.5,29.86,NW,318,0.0,5.0,56,0.00,,CLR,0.00,VWS V14.01,2013-06-25 23:04:00,
2013-06-25 19:09:00,87.0,68.9,29.86,SW,232,0.0,5.0,55,0.00,,CLR,0.00,VWS V14.01,2013-06-25 23:09:00,
2013-06-25 19:14:00,87.0,68.9,29.86,NNW,339,1.0,5.0,55,0.00,,CLR,0.00,VWS V14.01,2013-06-25 23:14:00,
2013-06-25 19:19:00,87.1,69.0,29.86,NW,306,0.0,6.0,55,0.00,,CLR,0.00,VWS V14.01,2013-06-25 23:19:00,
2013-06-25 19:24:00,87.0,68.9,29.86,WSW,237,0.0,6.0,55,0.00,,CLR,0.00,VWS V14.01,2013-06-25 23:24:00,
2013-06-25 19:29:00,86.8,69.2,29.86,NW,313,0.0,6.0,56,0.00,,CLR,0.00,VWS V14.01,2013-06-25 23:29:00,
2013-06-25 19:34:00,86.6,69.1,29.86,NW,309,0.0,1.0,56,0.00,,CLR,0.00,VWS V14.01,2013-06-25 23:34:00,
2013-06-25 19:39:00,86.3,69.3,29.86,West,261,0.0,3.0,57,0.00,,CLR,0.00,VWS V14.01,2013-06-25 23:39:00,
2013-06-25 19:44:00,85.9,68.9,29.86,SW,230,1.0,3.0,57,0.00,,CLR,0.00,VWS V14.01,2013-06-25 23:44:00,
2013-06-25 19:49:00,85.6,69.1,29.86,SW,232,0.0,3.0,58,0.00,,CLR,0.00,VWS V14.01,2013-06-25 23:49:00,
2013-06-25 19:54:00,85.2,69.3,29.87,SSW,213,0.0,3.0,59,0.00,,CLR,0.00,VWS V14.01,2013-06-25 23:54:00,
2013-06-25 19:59:00,84.9,69.0,29.87,West,273,0.0,3.0,59,0.00,,CLR,0.00,VWS V14.01,2013-06-25 23:59:00,
2013-06-25 20:04:00,84.7,69.3,29.87,West,270,0.0,1.0,60,0.00,,CLR,0.00,VWS V14.01,2013-06-26 00:04:00,
2013-06-25 20:09:00,84.4,69.5,29.87,West,273,0.0,1.0,61,0.00,,CLR,0.00,VWS V14.01,2013-06-26 00:09:00,
2013-06-25 20:14:00,84.0,69.6,29.87,SSW,196,1.0,2.0,62,0.00,,CLR,0.00,VWS V14.01,2013-06-26 00:14:00,
2013-06-25 20:19:00,83.6,69.7,29.87,South,190,2.0,4.0,63,0.00,,CLR,0.00,VWS V14.01,2013-06-26 00:19:00,
2013-06-25 20:24:00,83.2,69.3,29.87,SW,221,0.0,4.0,63,0.00,,CLR,0.00,VWS V14.01,2013-06-26 00:24:00,
2013-06-25 20:29:00,82.9,69.5,29.87,SW,227,1.0,1.0,64,0.00,,CLR,0.00,VWS V14.01,2013-06-26 00:29:00,
2013-06-25 20:34:00,82.5,69.1,29.87,WSW,242,0.0,2.0,64,0.00,,CLR,0.00,VWS V14.01,2013-06-26 00:34:00,
2013-06-25 20:39:00,82.0,69.1,29.87,SW,223,0.0,3.0,65,0.00,,CLR,0.00,VWS V14.01,2013-06-26 00:39:00,
2013-06-25 20:44:00,81.7,68.8,29.87,WNW,291,1.0,3.0,65,0.00,,CLR,0.00,VWS V14.01,2013-06-26 00:44:00,
2013-06-25 20:49:00,81.3,68.9,29.87,SSW,195,0.0,3.0,66,0.00,,CLR,0.00,VWS V14.01,2013-06-26 00:49:00,
2013-06-25 20:55:00,81.0,69.0,29.87,SSW,206,0.0,3.0,67,0.00,,CLR,0.00,VWS V14.01,2013-06-26 00:55:00,
2013-06-25 21:00:00,80.7,68.7,29.88,SSW,207,0.0,0.0,67,0.00,,CLR,0.00,VWS V14.01,2013-06-26 01:00:00,
2013-06-25 21:05:00,80.4,68.9,29.88,West,265,0.0,2.0,68,0.00,,CLR,0.00,VWS V14.01,2013-06-26 01:05:00,
2013-06-25 21:10:00,80.2,69.1,29.88,West,265,0.0,2.0,69,0.00,,CLR,0.00,VWS V14.01,2013-06-26 01:10:00,
2013-06-25 21:15:00,80.0,68.5,29.88,WSW,248,0.0,2.0,68,0.00,,CLR,0.00,VWS V14.01,2013-06-26 01:15:00,
2013-06-25 21:20:00,79.8,68.7,29.88,WSW,238,0.0,2.0,69,0.00,,CLR,0.00,VWS V14.01,2013-06-26 01:20:00,
2013-06-25 21:25:00,79.5,68.9,29.88,SSE,160,0.0,2.0,70,0.00,,CLR,0.00,VWS V14.01,2013-06-26 01:25:00,
2013-06-25 21:30:00,79.4,68.8,29.88,WSW,240,0.0,0.0,70,0.00,,CLR,0.00,VWS V14.01,2013-06-26 01:30:00,
2013-06-25 21:35:00,79.2,68.6,29.88,WSW,254,0.0,1.0,70,0.00,,CLR,0.00,VWS V14.01,2013-06-26 01:35:00,
2013-06-25 21:40:00,79.0,68.8,29.87,WSW,250,0.0,1.0,71,0.00,,CLR,0.00,VWS V14.01,2013-06-26 01:40:00,
2013-06-25 21:45:00,78.8,68.6,29.87,WSW,254,0.0,1.0,71,0.00,,CLR,0.00,VWS V14.01,2013-06-26 01:45:00,
2013-06-25 21:50:00,78.7,68.5,29.87,WSW,239,0.0,1.0,71,0.00,,CLR,0.00,VWS V14.01,2013-06-26 01:50:00,
2013-06-25 21:55:00,78.6,68.4,29.87,WSW,238,0.0,1.0,71,0.00,,CLR,0.00,VWS V14.01,2013-06-26 01:55:00,
2013-06-25 22:00:00,78.5,68.7,29.87,WSW,237,0.0,0.0,72,0.00,,CLR,0.00,VWS V14.01,2013-06-26 02:00:00,
2013-06-25 22:05:00,78.3,68.9,29.87,WSW,237,0.0,0.0,73,0.00,,CLR,0.00,VWS V14.01,2013-06-26 02:05:00,
2013-06-25 22:10:00,78.1,68.8,29.87,SSW,211,0.0,0.0,73,0.00,,CLR,0.00,VWS V14.01,2013-06-26 02:10:00,
2013-06-25 22:15:00,78.0,68.7,29.87,SW,217,0.0,1.0,73,0.00,,CLR,0.00,VWS V14.01,2013-06-26 02:15:00,
2013-06-25 22:20:00,77.9,68.9,29.87,SSW,212,0.0,1.0,74,0.00,,CLR,0.00,VWS V14.01,2013-06-26 02:20:00,
2013-06-25 22:25:00,77.8,69.2,29.87,SW,232,0.0,1.0,75,0.00,,CLR,0.00,VWS V14.01,2013-06-26 02:25:00,
2013-06-25 22:30:00,77.8,68.9,29.87,SSW,213,0.0,0.0,74,0.00,,CLR,0.00,VWS V14.01,2013-06-26 02:30:00,
2013-06-25 22:35:00,77.7,68.4,29.87,South,189,4.0,5.0,73,0.00,,CLR,0.00,VWS V14.01,2013-06-26 02:35:00,
2013-06-25 22:40:00,77.8,68.5,29.87,West,270,0.0,7.0,73,0.00,,CLR,0.00,VWS V14.01,2013-06-26 02:40:00,
2013-06-25 22:45:00,78.1,68.8,29.86,West,263,0.0,7.0,73,0.00,,CLR,0.00,VWS V14.01,2013-06-26 02:45:00,
2013-06-25 22:50:00,78.3,68.5,29.86,SW,224,0.0,7.0,72,0.00,,CLR,0.00,VWS V14.01,2013-06-26 02:50:00,
2013-06-25 22:55:00,78.4,68.6,29.86,SSW,195,2.0,7.0,72,0.00,,CLR,0.00,VWS V14.01,2013-06-26 02:55:00,
2013-06-25 23:00:00,78.4,68.6,29.86,WNW,285,1.0,3.0,72,0.00,,BKN120,0.00,VWS V14.01,2013-06-26 03:00:00,
2013-06-25 23:05:00,78.5,68.7,29.86,SE,142,0.0,7.0,72,0.00,,BKN120,0.00,VWS V14.01,2013-06-26 03:05:00,
2013-06-25 23:10:00,78.5,69.1,29.86,SSE,165,3.0,7.0,73,0.00,,BKN120,0.00,VWS V14.01,2013-06-26 03:10:00,
2013-06-25 23:15:00,78.5,69.1,29.86,SSW,201,4.0,7.0,73,0.00,,BKN120,0.00,VWS V14.01,2013-06-26 03:15:00,
2013-06-25 23:20:00,78.4,69.0,29.85,SSE,152,2.0,7.0,73,0.00,,BKN120,0.00,VWS V14.01,2013-06-26 03:20:00,
2013-06-25 23:25:00,78.5,69.5,29.85,SW,229,3.0,7.0,74,0.00,,BKN120,0.00,VWS V14.01,2013-06-26 03:25:00,
2013-06-25 23:31:00,78.5,69.5,29.85,SE,129,0.0,3.0,74,0.00,,BKN120,0.00,VWS V14.01,2013-06-26 03:31:00,
2013-06-25 23:36:00,78.5,69.5,29.85,SSW,204,1.0,4.0,74,0.00,,BKN120,0.00,VWS V14.01,2013-06-26 03:36:00,
2013-06-25 23:40:00,78.5,69.9,29.85,NW,324,2.0,4.0,75,0.00,,BKN120,0.00,VWS V14.01,2013-06-26 03:40:00,
2013-06-25 23:46:00,78.5,70.3,29.85,NNW,336,0.0,4.0,76,0.00,,BKN120,0.00,VWS V14.01,2013-06-26 03:46:00,
2013-06-25 23:51:00,78.4,69.8,29.85,NW,320,0.0,4.0,75,0.00,,BKN120,0.00,VWS V14.01,2013-06-26 03:51:00,
2013-06-25 23:56:00,78.2,69.6,29.86,NW,305,0.0,4.0,75,0.00,,BKN120,0.00,VWS V14.01,2013-06-26 03:56:00,